createdAt,value
2022-07-29T04:55:19.702Z,5.35
2022-07-29T04:57:46.203Z,4.82
2022-07-29T05:00:13.156Z,4.83
2022-07-29T05:02:39.709Z,4.38
2022-07-29T05:05:06.659Z,4.82
2022-07-29T05:07:33.267Z,4.80
2022-07-29T05:09:59.778Z,4.93
2022-07-29T05:12:26.542Z,5.00
2022-07-29T05:14:53.015Z,4.95
2022-07-29T05:17:19.517Z,4.97
2022-07-29T05:19:46.082Z,5.20
2022-07-29T05:22:12.571Z,5.10
2022-07-29T05:24:39.099Z,5.13
2022-07-29T05:27:05.615Z,4.82
2022-07-29T05:29:44.106Z,5.15
2022-07-29T05:32:12.795Z,5.28
2022-07-29T05:34:51.343Z,5.28
2022-07-29T05:37:21.694Z,5.07
2022-07-29T05:39:50.490Z,4.88
2022-07-29T05:42:23.756Z,5.53
2022-07-29T05:44:50.221Z,5.00
2022-07-29T05:47:17.005Z,4.72
2022-07-29T05:49:44.524Z,5.03
2022-07-29T05:52:11.178Z,5.40
2022-07-29T05:54:37.712Z,5.50
2022-07-29T05:57:04.357Z,5.07
2022-07-29T05:59:30.881Z,6.20
2022-07-29T06:01:58.431Z,5.70
2022-07-29T06:04:25.158Z,5.38
2022-07-29T06:06:51.727Z,5.25
2022-07-29T06:09:18.221Z,5.85
2022-07-29T06:11:44.793Z,5.95
2022-07-29T06:14:11.445Z,5.40
2022-07-29T06:16:38.069Z,5.88
2022-07-29T06:19:05.331Z,5.78
2022-07-29T06:21:31.838Z,5.63
2022-07-29T06:23:58.310Z,5.70
2022-07-29T06:26:30.403Z,5.43
2022-07-29T06:28:58.541Z,5.45
2022-07-29T06:31:25.114Z,5.38
2022-07-29T06:33:51.689Z,5.90
2022-07-29T06:36:21.326Z,5.70
2022-07-29T06:38:51.309Z,5.47
2022-07-29T06:41:18.991Z,5.70
2022-07-29T06:43:52.450Z,5.15
2022-07-29T06:46:22.315Z,5.45
2022-07-29T06:48:49.183Z,5.82
2022-07-29T06:51:17.240Z,5.60
2022-07-29T06:54:00.462Z,5.88
2022-07-29T06:56:38.521Z,5.80
2022-07-29T06:59:06.453Z,5.90
2022-07-29T07:01:33.022Z,5.60
2022-07-29T07:03:59.588Z,6.47
2022-07-29T07:06:26.097Z,5.93
2022-07-29T07:08:52.621Z,5.53
2022-07-29T07:11:19.118Z,6.30
2022-07-29T07:13:45.654Z,6.32
2022-07-29T07:16:12.165Z,5.50
2022-07-29T07:18:38.757Z,5.60
2022-07-29T07:21:06.592Z,5.93
2022-07-29T07:23:33.081Z,5.85
2022-07-29T07:25:59.551Z,5.57
2022-07-29T07:28:26.112Z,5.73
2022-07-29T07:30:53.004Z,5.57
2022-07-29T07:33:19.852Z,5.70
2022-07-29T07:35:46.662Z,5.75
2022-07-29T07:38:15.466Z,6.18
2022-07-29T07:40:42.244Z,5.87
2022-07-29T07:43:08.916Z,6.10
2022-07-29T07:45:37.918Z,6.13
2022-07-29T07:48:04.909Z,6.38
2022-07-29T07:50:31.373Z,7.15
2022-07-29T07:52:58.906Z,7.07
2022-07-29T07:55:26.602Z,6.35
2022-07-29T07:57:53.406Z,6.38
2022-07-29T08:00:19.984Z,6.40
2022-07-29T08:02:50.960Z,6.32
2022-07-29T08:05:18.165Z,5.70
2022-07-29T08:07:48.026Z,5.95
2022-07-29T08:10:38.977Z,6.32
2022-07-29T08:13:06.885Z,6.03
2022-07-29T08:15:33.686Z,6.28
2022-07-29T08:18:02.309Z,5.53
2022-07-29T08:20:36.307Z,6.13
2022-07-29T08:23:07.446Z,6.30
2022-07-29T08:25:37.569Z,6.18
2022-07-29T08:28:06.946Z,6.10
2022-07-29T08:30:33.697Z,5.80
2022-07-29T08:33:00.674Z,6.10
2022-07-29T08:35:30.932Z,6.07
2022-07-29T08:37:59.946Z,6.63
2022-07-29T08:40:32.319Z,6.30
2022-07-29T08:43:00.590Z,6.20
2022-07-29T08:45:27.787Z,6.00
2022-07-29T08:47:54.458Z,6.10
2022-07-29T08:50:21.013Z,5.53
2022-07-29T08:52:47.938Z,5.82
2022-07-29T08:55:16.339Z,7.13
2022-07-29T08:57:51.954Z,5.80
2022-07-29T09:00:22.360Z,5.50
2022-07-29T09:02:52.704Z,6.10
2022-07-29T09:05:19.910Z,5.50
2022-07-29T09:07:48.901Z,6.53
2022-07-29T09:10:15.739Z,6.47
2022-07-29T09:12:42.415Z,6.40
2022-07-29T09:15:09.277Z,6.25
2022-07-29T09:17:46.717Z,5.82
2022-07-29T09:20:18.827Z,6.17
2022-07-29T09:22:50.018Z,5.80
2022-07-29T09:25:33.491Z,5.70
2022-07-29T09:28:07.095Z,5.60
2022-07-29T09:30:33.629Z,5.25
2022-07-29T09:33:02.238Z,5.50
2022-07-29T09:35:29.697Z,5.72
2022-07-29T09:37:56.498Z,5.80
2022-07-29T09:40:28.383Z,6.00
2022-07-29T09:42:58.302Z,5.53
2022-07-29T09:45:30.408Z,5.80
2022-07-29T09:48:00.018Z,5.68
2022-07-29T09:50:42.878Z,5.32
2022-07-29T09:53:12.167Z,5.50
2022-07-29T09:55:49.374Z,5.25
2022-07-29T09:58:19.804Z,5.50
2022-07-29T10:00:47.700Z,5.93
2022-07-29T10:03:16.634Z,5.70
2022-07-29T10:05:44.022Z,5.18
2022-07-29T10:08:11.331Z,5.68
2022-07-29T10:10:40.346Z,5.47
2022-07-29T10:13:15.816Z,5.55
2022-07-29T10:15:45.263Z,5.40
2022-07-29T10:18:13.902Z,5.35
2022-07-29T10:20:41.391Z,5.05
2022-07-29T10:23:08.162Z,5.07
2022-07-29T10:25:34.630Z,5.45
2022-07-29T10:28:01.156Z,5.20
2022-07-29T10:30:28.004Z,5.05
2022-07-29T10:33:06.384Z,5.38
2022-07-29T10:35:46.156Z,4.73
2022-07-29T10:38:48.938Z,5.07
2022-07-29T10:41:44.226Z,4.43
2022-07-29T10:44:23.295Z,4.55
2022-07-29T10:46:51.609Z,4.63
2022-07-29T10:49:25.146Z,4.97
2022-07-29T10:52:06.883Z,4.13
2022-07-29T10:54:36.468Z,4.00
2022-07-29T10:57:15.059Z,4.40
2022-07-29T10:59:46.355Z,4.40
2022-07-29T11:02:41.854Z,4.27
2022-07-29T11:05:22.087Z,4.30
2022-07-29T11:08:20.500Z,4.40
2022-07-29T11:10:54.581Z,3.97
2022-07-29T11:13:47.269Z,4.18
2022-07-29T11:16:16.410Z,4.33
2022-07-29T11:19:11.516Z,4.45
2022-07-29T11:21:53.815Z,4.63
2022-07-29T11:24:33.195Z,4.72
2022-07-29T11:27:13.442Z,4.72
2022-07-29T11:29:50.464Z,4.60
2022-07-29T11:32:22.652Z,4.38
2022-07-29T11:34:51.562Z,4.53
2022-07-29T11:37:19.997Z,4.40
2022-07-29T11:40:01.793Z,4.00
2022-07-29T11:42:34.256Z,4.13
2022-07-29T11:45:43.318Z,4.28
2022-07-29T11:48:27.731Z,4.25
